sensor_id;sensor_type;location;lat;lon;timestamp;P1;durP1;ratioP1;P2;durP2;ratioP2
24859;SDS011;12936;52.006;4.350;2023-01-04T00:00:10;9.33;;;3.37;;
24859;SDS011;12936;52.006;4.350;2023-01-04T00:02:40;3.50;;;2.13;;
24859;SDS011;12936;52.006;4.350;2023-01-04T00:05:09;7.00;;;3.23;;
24859;SDS011;12936;52.006;4.350;2023-01-04T00:07:38;3.67;;;3.00;;
24859;SDS011;12936;52.006;4.350;2023-01-04T00:10:11;7.80;;;2.50;;
24859;SDS011;12936;52.006;4.350;2023-01-04T00:12:40;5.70;;;2.73;;
24859;SDS011;12936;52.006;4.350;2023-01-04T00:15:10;3.47;;;2.70;;
24859;SDS011;12936;52.006;4.350;2023-01-04T00:17:39;5.90;;;2.90;;
24859;SDS011;12936;52.006;4.350;2023-01-04T00:20:08;8.33;;;3.10;;
24859;SDS011;12936;52.006;4.350;2023-01-04T00:22:36;7.00;;;3.57;;
24859;SDS011;12936;52.006;4.350;2023-01-04T00:25:05;6.00;;;3.53;;
24859;SDS011;12936;52.006;4.350;2023-01-04T00:27:41;6.50;;;4.17;;
24859;SDS011;12936;52.006;4.350;2023-01-04T00:30:11;10.03;;;3.93;;
24859;SDS011;12936;52.006;4.350;2023-01-04T00:32:47;9.70;;;4.23;;
24859;SDS011;12936;52.006;4.350;2023-01-04T00:35:16;6.70;;;3.70;;
24859;SDS011;12936;52.006;4.350;2023-01-04T00:38:05;6.03;;;3.50;;
24859;SDS011;12936;52.006;4.350;2023-01-04T00:40:33;7.13;;;4.23;;
24859;SDS011;12936;52.006;4.350;2023-01-04T00:43:04;7.20;;;4.07;;
24859;SDS011;12936;52.006;4.350;2023-01-04T00:45:32;9.70;;;4.87;;
24859;SDS011;12936;52.006;4.350;2023-01-04T00:48:00;9.13;;;4.63;;
24859;SDS011;12936;52.006;4.350;2023-01-04T00:50:30;8.53;;;3.93;;
24859;SDS011;12936;52.006;4.350;2023-01-04T00:52:58;12.13;;;5.50;;
24859;SDS011;12936;52.006;4.350;2023-01-04T00:55:26;9.17;;;4.97;;
24859;SDS011;12936;52.006;4.350;2023-01-04T00:57:59;9.00;;;3.40;;
24859;SDS011;12936;52.006;4.350;2023-01-04T01:00:31;6.00;;;2.67;;
24859;SDS011;12936;52.006;4.350;2023-01-04T01:02:59;6.47;;;3.50;;
24859;SDS011;12936;52.006;4.350;2023-01-04T01:05:28;6.10;;;3.20;;
24859;SDS011;12936;52.006;4.350;2023-01-04T01:07:56;3.70;;;2.57;;
24859;SDS011;12936;52.006;4.350;2023-01-04T01:10:45;5.57;;;3.43;;
24859;SDS011;12936;52.006;4.350;2023-01-04T01:13:14;5.03;;;2.60;;
24859;SDS011;12936;52.006;4.350;2023-01-04T01:15:49;4.20;;;2.83;;
24859;SDS011;12936;52.006;4.350;2023-01-04T01:18:17;4.13;;;2.90;;
24859;SDS011;12936;52.006;4.350;2023-01-04T01:20:48;3.73;;;2.33;;
24859;SDS011;12936;52.006;4.350;2023-01-04T01:23:16;6.97;;;3.47;;
24859;SDS011;12936;52.006;4.350;2023-01-04T01:25:45;8.03;;;3.23;;
24859;SDS011;12936;52.006;4.350;2023-01-04T01:28:14;4.53;;;3.33;;
24859;SDS011;12936;52.006;4.350;2023-01-04T01:30:42;4.87;;;3.67;;
24859;SDS011;12936;52.006;4.350;2023-01-04T01:33:16;7.57;;;4.30;;
24859;SDS011;12936;52.006;4.350;2023-01-04T01:35:44;6.27;;;4.30;;
24859;SDS011;12936;52.006;4.350;2023-01-04T01:38:12;4.87;;;2.10;;
24859;SDS011;12936;52.006;4.350;2023-01-04T01:40:40;8.27;;;3.47;;
24859;SDS011;12936;52.006;4.350;2023-01-04T01:43:14;8.23;;;4.63;;
24859;SDS011;12936;52.006;4.350;2023-01-04T01:45:44;8.17;;;4.00;;
24859;SDS011;12936;52.006;4.350;2023-01-04T01:48:16;5.57;;;4.00;;
24859;SDS011;12936;52.006;4.350;2023-01-04T01:50:50;5.93;;;3.03;;
24859;SDS011;12936;52.006;4.350;2023-01-04T01:53:23;8.07;;;3.77;;
24859;SDS011;12936;52.006;4.350;2023-01-04T01:56:13;6.87;;;3.80;;
24859;SDS011;12936;52.006;4.350;2023-01-04T01:58:44;5.53;;;2.90;;
24859;SDS011;12936;52.006;4.350;2023-01-04T02:01:17;6.33;;;3.87;;
24859;SDS011;12936;52.006;4.350;2023-01-04T02:03:47;4.07;;;2.97;;
24859;SDS011;12936;52.006;4.350;2023-01-04T02:06:16;8.27;;;3.57;;
24859;SDS011;12936;52.006;4.350;2023-01-04T02:08:53;6.87;;;3.07;;
24859;SDS011;12936;52.006;4.350;2023-01-04T02:11:25;5.40;;;3.13;;
24859;SDS011;12936;52.006;4.350;2023-01-04T02:13:53;3.43;;;1.97;;
24859;SDS011;12936;52.006;4.350;2023-01-04T02:16:48;4.80;;;2.63;;
24859;SDS011;12936;52.006;4.350;2023-01-04T02:19:33;2.93;;;2.70;;
24859;SDS011;12936;52.006;4.350;2023-01-04T02:22:24;4.80;;;2.53;;
24859;SDS011;12936;52.006;4.350;2023-01-04T02:25:26;5.67;;;2.90;;
24859;SDS011;12936;52.006;4.350;2023-01-04T02:28:07;3.70;;;2.60;;
24859;SDS011;12936;52.006;4.350;2023-01-04T02:31:00;6.07;;;3.37;;
24859;SDS011;12936;52.006;4.350;2023-01-04T02:33:43;3.20;;;2.53;;
24859;SDS011;12936;52.006;4.350;2023-01-04T02:36:21;4.67;;;2.77;;
24859;SDS011;12936;52.006;4.350;2023-01-04T02:38:58;4.30;;;3.10;;
24859;SDS011;12936;52.006;4.350;2023-01-04T02:41:38;5.73;;;2.77;;
24859;SDS011;12936;52.006;4.350;2023-01-04T02:44:10;5.33;;;3.17;;
24859;SDS011;12936;52.006;4.350;2023-01-04T02:47:01;5.80;;;3.23;;
24859;SDS011;12936;52.006;4.350;2023-01-04T02:49:33;5.80;;;3.30;;
24859;SDS011;12936;52.006;4.350;2023-01-04T02:52:29;5.83;;;4.10;;
24859;SDS011;12936;52.006;4.350;2023-01-04T02:55:05;5.13;;;2.93;;
24859;SDS011;12936;52.006;4.350;2023-01-04T02:57:40;4.03;;;3.63;;
24859;SDS011;12936;52.006;4.350;2023-01-04T03:00:19;6.60;;;3.87;;
24859;SDS011;12936;52.006;4.350;2023-01-04T03:03:25;6.10;;;4.50;;
24859;SDS011;12936;52.006;4.350;2023-01-04T03:06:16;7.13;;;4.70;;
24859;SDS011;12936;52.006;4.350;2023-01-04T03:08:53;3.50;;;3.20;;
24859;SDS011;12936;52.006;4.350;2023-01-04T03:11:26;6.77;;;4.67;;
24859;SDS011;12936;52.006;4.350;2023-01-04T03:14:18;7.20;;;4.53;;
24859;SDS011;12936;52.006;4.350;2023-01-04T03:16:58;6.13;;;5.20;;
24859;SDS011;12936;52.006;4.350;2023-01-04T03:19:29;6.63;;;4.77;;
24859;SDS011;12936;52.006;4.350;2023-01-04T03:22:20;5.20;;;3.90;;
24859;SDS011;12936;52.006;4.350;2023-01-04T03:25:13;6.77;;;4.27;;
24859;SDS011;12936;52.006;4.350;2023-01-04T03:28:15;6.63;;;4.10;;
24859;SDS011;12936;52.006;4.350;2023-01-04T03:31:06;3.17;;;2.93;;
24859;SDS011;12936;52.006;4.350;2023-01-04T03:33:57;4.43;;;4.03;;
24859;SDS011;12936;52.006;4.350;2023-01-04T03:36:46;5.87;;;4.00;;
24859;SDS011;12936;52.006;4.350;2023-01-04T03:39:26;5.30;;;3.97;;
24859;SDS011;12936;52.006;4.350;2023-01-04T03:42:19;4.17;;;3.20;;
24859;SDS011;12936;52.006;4.350;2023-01-04T03:45:14;4.37;;;3.70;;
24859;SDS011;12936;52.006;4.350;2023-01-04T03:48:05;6.23;;;3.43;;
24859;SDS011;12936;52.006;4.350;2023-01-04T03:51:01;6.73;;;5.00;;
24859;SDS011;12936;52.006;4.350;2023-01-04T03:53:40;5.30;;;3.80;;
24859;SDS011;12936;52.006;4.350;2023-01-04T03:56:14;6.80;;;4.70;;
24859;SDS011;12936;52.006;4.350;2023-01-04T03:58:46;7.67;;;4.37;;
24859;SDS011;12936;52.006;4.350;2023-01-04T04:01:16;9.90;;;4.40;;
24859;SDS011;12936;52.006;4.350;2023-01-04T04:03:53;4.77;;;3.87;;
24859;SDS011;12936;52.006;4.350;2023-01-04T04:06:40;7.47;;;3.60;;
24859;SDS011;12936;52.006;4.350;2023-01-04T04:09:31;6.40;;;3.90;;
24859;SDS011;12936;52.006;4.350;2023-01-04T04:12:00;5.50;;;3.60;;
24859;SDS011;12936;52.006;4.350;2023-01-04T04:14:28;5.07;;;3.40;;
24859;SDS011;12936;52.006;4.350;2023-01-04T04:16:56;7.53;;;3.20;;
24859;SDS011;12936;52.006;4.350;2023-01-04T04:19:27;9.30;;;3.37;;
24859;SDS011;12936;52.006;4.350;2023-01-04T04:21:55;7.10;;;2.33;;
24859;SDS011;12936;52.006;4.350;2023-01-04T04:24:25;9.70;;;2.90;;
24859;SDS011;12936;52.006;4.350;2023-01-04T04:26:55;9.27;;;3.23;;
24859;SDS011;12936;52.006;4.350;2023-01-04T04:29:23;4.17;;;2.60;;
24859;SDS011;12936;52.006;4.350;2023-01-04T04:31:52;13.80;;;3.00;;
24859;SDS011;12936;52.006;4.350;2023-01-04T04:34:20;10.03;;;2.77;;
24859;SDS011;12936;52.006;4.350;2023-01-04T04:36:48;6.47;;;2.67;;
24859;SDS011;12936;52.006;4.350;2023-01-04T04:39:24;5.97;;;2.53;;
24859;SDS011;12936;52.006;4.350;2023-01-04T04:41:57;5.17;;;2.13;;
24859;SDS011;12936;52.006;4.350;2023-01-04T04:44:24;3.80;;;1.80;;
24859;SDS011;12936;52.006;4.350;2023-01-04T04:46:55;8.40;;;3.10;;
24859;SDS011;12936;52.006;4.350;2023-01-04T04:49:24;6.17;;;2.40;;
24859;SDS011;12936;52.006;4.350;2023-01-04T04:51:52;4.23;;;1.97;;
24859;SDS011;12936;52.006;4.350;2023-01-04T04:54:40;4.93;;;2.13;;
24859;SDS011;12936;52.006;4.350;2023-01-04T04:57:10;4.90;;;1.90;;
24859;SDS011;12936;52.006;4.350;2023-01-04T04:59:39;5.53;;;2.03;;
24859;SDS011;12936;52.006;4.350;2023-01-04T05:02:07;5.23;;;2.03;;
24859;SDS011;12936;52.006;4.350;2023-01-04T05:04:38;3.50;;;1.90;;
24859;SDS011;12936;52.006;4.350;2023-01-04T05:07:07;3.83;;;1.67;;
24859;SDS011;12936;52.006;4.350;2023-01-04T05:09:38;3.57;;;1.80;;
24859;SDS011;12936;52.006;4.350;2023-01-04T05:12:08;2.97;;;2.13;;
24859;SDS011;12936;52.006;4.350;2023-01-04T05:14:59;2.60;;;1.60;;
24859;SDS011;12936;52.006;4.350;2023-01-04T05:17:28;3.40;;;2.30;;
24859;SDS011;12936;52.006;4.350;2023-01-04T05:19:57;3.17;;;2.57;;
24859;SDS011;12936;52.006;4.350;2023-01-04T05:22:27;2.50;;;2.30;;
24859;SDS011;12936;52.006;4.350;2023-01-04T05:24:56;4.70;;;2.70;;
24859;SDS011;12936;52.006;4.350;2023-01-04T05:27:28;4.83;;;2.60;;
24859;SDS011;12936;52.006;4.350;2023-01-04T05:29:59;3.03;;;2.63;;
24859;SDS011;12936;52.006;4.350;2023-01-04T05:32:46;3.87;;;2.23;;
24859;SDS011;12936;52.006;4.350;2023-01-04T05:35:14;6.87;;;2.90;;
24859;SDS011;12936;52.006;4.350;2023-01-04T05:37:44;4.77;;;2.83;;
24859;SDS011;12936;52.006;4.350;2023-01-04T05:40:13;2.33;;;2.13;;
24859;SDS011;12936;52.006;4.350;2023-01-04T05:43:04;5.80;;;2.80;;
24859;SDS011;12936;52.006;4.350;2023-01-04T05:45:32;5.63;;;3.00;;
24859;SDS011;12936;52.006;4.350;2023-01-04T05:48:00;3.70;;;2.50;;
24859;SDS011;12936;52.006;4.350;2023-01-04T05:50:29;6.37;;;3.20;;
24859;SDS011;12936;52.006;4.350;2023-01-04T05:52:57;6.00;;;2.60;;
24859;SDS011;12936;52.006;4.350;2023-01-04T05:55:25;3.10;;;2.50;;
24859;SDS011;12936;52.006;4.350;2023-01-04T05:57:53;5.70;;;2.90;;
24859;SDS011;12936;52.006;4.350;2023-01-04T06:00:23;7.37;;;3.13;;
24859;SDS011;12936;52.006;4.350;2023-01-04T06:02:51;6.83;;;2.77;;
24859;SDS011;12936;52.006;4.350;2023-01-04T06:05:20;3.87;;;2.37;;
24859;SDS011;12936;52.006;4.350;2023-01-04T06:07:50;3.70;;;2.10;;
24859;SDS011;12936;52.006;4.350;2023-01-04T06:10:18;4.97;;;1.70;;
24859;SDS011;12936;52.006;4.350;2023-01-04T06:12:47;6.43;;;2.40;;
24859;SDS011;12936;52.006;4.350;2023-01-04T06:15:15;7.83;;;1.77;;
24859;SDS011;12936;52.006;4.350;2023-01-04T06:17:44;8.03;;;1.60;;
24859;SDS011;12936;52.006;4.350;2023-01-04T06:20:13;5.20;;;1.90;;
24859;SDS011;12936;52.006;4.350;2023-01-04T06:22:41;4.50;;;1.70;;
24859;SDS011;12936;52.006;4.350;2023-01-04T06:25:09;10.23;;;2.60;;
24859;SDS011;12936;52.006;4.350;2023-01-04T06:27:37;7.70;;;2.90;;
24859;SDS011;12936;52.006;4.350;2023-01-04T06:30:06;6.23;;;2.70;;
24859;SDS011;12936;52.006;4.350;2023-01-04T06:32:35;8.47;;;2.70;;
24859;SDS011;12936;52.006;4.350;2023-01-04T06:35:05;8.27;;;2.90;;
24859;SDS011;12936;52.006;4.350;2023-01-04T06:37:33;8.40;;;2.17;;
24859;SDS011;12936;52.006;4.350;2023-01-04T06:40:01;14.83;;;3.40;;
24859;SDS011;12936;52.006;4.350;2023-01-04T06:42:30;16.60;;;3.10;;
24859;SDS011;12936;52.006;4.350;2023-01-04T06:45:13;6.57;;;2.37;;
24859;SDS011;12936;52.006;4.350;2023-01-04T06:47:42;14.93;;;3.17;;
24859;SDS011;12936;52.006;4.350;2023-01-04T06:50:14;9.13;;;2.57;;
24859;SDS011;12936;52.006;4.350;2023-01-04T06:52:42;11.33;;;2.70;;
24859;SDS011;12936;52.006;4.350;2023-01-04T06:55:10;11.00;;;2.63;;
24859;SDS011;12936;52.006;4.350;2023-01-04T06:57:38;14.20;;;3.00;;
24859;SDS011;12936;52.006;4.350;2023-01-04T07:00:07;20.63;;;3.83;;
24859;SDS011;12936;52.006;4.350;2023-01-04T07:02:36;10.10;;;2.60;;
24859;SDS011;12936;52.006;4.350;2023-01-04T07:05:25;14.53;;;3.33;;
24859;SDS011;12936;52.006;4.350;2023-01-04T07:07:53;9.50;;;2.60;;
24859;SDS011;12936;52.006;4.350;2023-01-04T07:10:21;13.93;;;2.50;;
24859;SDS011;12936;52.006;4.350;2023-01-04T07:12:50;10.73;;;2.70;;
24859;SDS011;12936;52.006;4.350;2023-01-04T07:15:18;12.10;;;3.10;;
24859;SDS011;12936;52.006;4.350;2023-01-04T07:18:05;15.33;;;2.80;;
24859;SDS011;12936;52.006;4.350;2023-01-04T07:20:34;11.17;;;2.87;;
24859;SDS011;12936;52.006;4.350;2023-01-04T07:23:03;14.37;;;2.63;;
24859;SDS011;12936;52.006;4.350;2023-01-04T07:25:31;14.70;;;2.60;;
24859;SDS011;12936;52.006;4.350;2023-01-04T07:27:59;8.77;;;2.40;;
24859;SDS011;12936;52.006;4.350;2023-01-04T07:30:27;16.33;;;2.63;;
24859;SDS011;12936;52.006;4.350;2023-01-04T07:32:55;10.53;;;2.73;;
24859;SDS011;12936;52.006;4.350;2023-01-04T07:35:24;10.17;;;1.93;;
24859;SDS011;12936;52.006;4.350;2023-01-04T07:37:54;11.30;;;2.47;;
24859;SDS011;12936;52.006;4.350;2023-01-04T07:40:24;15.43;;;2.47;;
24859;SDS011;12936;52.006;4.350;2023-01-04T07:42:53;14.17;;;2.27;;
24859;SDS011;12936;52.006;4.350;2023-01-04T07:45:23;9.97;;;2.13;;
24859;SDS011;12936;52.006;4.350;2023-01-04T07:47:52;6.33;;;2.00;;
24859;SDS011;12936;52.006;4.350;2023-01-04T07:50:20;15.43;;;3.03;;
24859;SDS011;12936;52.006;4.350;2023-01-04T07:52:48;13.33;;;2.47;;
24859;SDS011;12936;52.006;4.350;2023-01-04T07:55:17;16.07;;;2.30;;
24859;SDS011;12936;52.006;4.350;2023-01-04T07:57:46;20.87;;;3.53;;
24859;SDS011;12936;52.006;4.350;2023-01-04T08:00:14;22.80;;;3.20;;
24859;SDS011;12936;52.006;4.350;2023-01-04T08:02:42;16.90;;;2.50;;
24859;SDS011;12936;52.006;4.350;2023-01-04T08:05:11;13.73;;;2.53;;
24859;SDS011;12936;52.006;4.350;2023-01-04T08:07:39;11.80;;;2.37;;
24859;SDS011;12936;52.006;4.350;2023-01-04T08:10:07;8.40;;;1.77;;
24859;SDS011;12936;52.006;4.350;2023-01-04T08:12:37;13.67;;;3.07;;
24859;SDS011;12936;52.006;4.350;2023-01-04T08:15:05;10.37;;;1.87;;
24859;SDS011;12936;52.006;4.350;2023-01-04T08:17:34;15.07;;;2.57;;
24859;SDS011;12936;52.006;4.350;2023-01-04T08:20:02;15.43;;;2.90;;
24859;SDS011;12936;52.006;4.350;2023-01-04T08:22:31;22.70;;;3.70;;
24859;SDS011;12936;52.006;4.350;2023-01-04T08:24:59;15.83;;;2.90;;
24859;SDS011;12936;52.006;4.350;2023-01-04T08:27:27;35.57;;;4.90;;
24859;SDS011;12936;52.006;4.350;2023-01-04T08:29:56;29.07;;;3.83;;
24859;SDS011;12936;52.006;4.350;2023-01-04T08:32:24;20.73;;;3.60;;
24859;SDS011;12936;52.006;4.350;2023-01-04T08:34:52;20.20;;;3.53;;
24859;SDS011;12936;52.006;4.350;2023-01-04T08:37:20;28.67;;;3.47;;
24859;SDS011;12936;52.006;4.350;2023-01-04T08:39:48;19.77;;;3.43;;
24859;SDS011;12936;52.006;4.350;2023-01-04T08:42:16;31.67;;;4.37;;
24859;SDS011;12936;52.006;4.350;2023-01-04T08:44:57;23.33;;;3.57;;
24859;SDS011;12936;52.006;4.350;2023-01-04T08:47:27;16.10;;;2.53;;
24859;SDS011;12936;52.006;4.350;2023-01-04T08:49:56;28.47;;;4.43;;
24859;SDS011;12936;52.006;4.350;2023-01-04T08:52:34;22.27;;;4.00;;
24859;SDS011;12936;52.006;4.350;2023-01-04T08:55:03;29.03;;;4.20;;
24859;SDS011;12936;52.006;4.350;2023-01-04T08:57:38;22.90;;;3.83;;
24859;SDS011;12936;52.006;4.350;2023-01-04T09:00:09;22.67;;;3.10;;
24859;SDS011;12936;52.006;4.350;2023-01-04T09:02:38;26.77;;;3.97;;
24859;SDS011;12936;52.006;4.350;2023-01-04T09:05:07;23.67;;;3.07;;
24859;SDS011;12936;52.006;4.350;2023-01-04T09:07:47;22.50;;;3.03;;
24859;SDS011;12936;52.006;4.350;2023-01-04T09:10:16;25.90;;;3.07;;
24859;SDS011;12936;52.006;4.350;2023-01-04T09:12:44;23.23;;;2.07;;
24859;SDS011;12936;52.006;4.350;2023-01-04T09:15:14;23.03;;;4.03;;
24859;SDS011;12936;52.006;4.350;2023-01-04T09:17:43;16.17;;;2.67;;
24859;SDS011;12936;52.006;4.350;2023-01-04T09:20:31;24.97;;;3.30;;
24859;SDS011;12936;52.006;4.350;2023-01-04T09:22:59;17.37;;;2.07;;
24859;SDS011;12936;52.006;4.350;2023-01-04T09:25:27;26.13;;;3.70;;
24859;SDS011;12936;52.006;4.350;2023-01-04T09:27:56;21.10;;;2.83;;
24859;SDS011;12936;52.006;4.350;2023-01-04T09:30:25;19.70;;;3.30;;
24859;SDS011;12936;52.006;4.350;2023-01-04T09:32:53;28.63;;;3.57;;
24859;SDS011;12936;52.006;4.350;2023-01-04T09:35:22;19.13;;;2.90;;
24859;SDS011;12936;52.006;4.350;2023-01-04T09:37:50;23.47;;;3.87;;
24859;SDS011;12936;52.006;4.350;2023-01-04T09:40:19;33.10;;;4.13;;
24859;SDS011;12936;52.006;4.350;2023-01-04T09:42:51;23.97;;;2.90;;
24859;SDS011;12936;52.006;4.350;2023-01-04T09:45:41;33.87;;;3.70;;
24859;SDS011;12936;52.006;4.350;2023-01-04T09:48:10;17.33;;;2.87;;
24859;SDS011;12936;52.006;4.350;2023-01-04T09:50:51;19.87;;;3.27;;
24859;SDS011;12936;52.006;4.350;2023-01-04T09:53:23;15.87;;;3.17;;
24859;SDS011;12936;52.006;4.350;2023-01-04T09:55:55;25.67;;;3.63;;
24859;SDS011;12936;52.006;4.350;2023-01-04T09:58:32;24.53;;;3.27;;
24859;SDS011;12936;52.006;4.350;2023-01-04T10:01:04;31.07;;;3.83;;
24859;SDS011;12936;52.006;4.350;2023-01-04T10:03:35;15.03;;;2.53;;
24859;SDS011;12936;52.006;4.350;2023-01-04T10:06:05;27.43;;;3.83;;
24859;SDS011;12936;52.006;4.350;2023-01-04T10:08:36;19.80;;;2.60;;
24859;SDS011;12936;52.006;4.350;2023-01-04T10:11:08;13.57;;;1.93;;
24859;SDS011;12936;52.006;4.350;2023-01-04T10:13:50;23.30;;;3.33;;
24859;SDS011;12936;52.006;4.350;2023-01-04T10:16:35;15.50;;;2.47;;
24859;SDS011;12936;52.006;4.350;2023-01-04T10:19:33;19.07;;;3.03;;
24859;SDS011;12936;52.006;4.350;2023-01-04T10:22:35;10.63;;;1.53;;
24859;SDS011;12936;52.006;4.350;2023-01-04T10:25:17;14.33;;;2.17;;
24859;SDS011;12936;52.006;4.350;2023-01-04T10:27:52;9.93;;;1.10;;
24859;SDS011;12936;52.006;4.350;2023-01-04T10:30:42;12.70;;;2.27;;
24859;SDS011;12936;52.006;4.350;2023-01-04T10:33:20;12.73;;;2.13;;
24859;SDS011;12936;52.006;4.350;2023-01-04T10:35:54;14.67;;;2.13;;
24859;SDS011;12936;52.006;4.350;2023-01-04T10:38:24;17.20;;;2.47;;
24859;SDS011;12936;52.006;4.350;2023-01-04T10:40:55;12.77;;;1.90;;
24859;SDS011;12936;52.006;4.350;2023-01-04T10:43:29;10.90;;;1.57;;
24859;SDS011;12936;52.006;4.350;2023-01-04T10:46:27;8.67;;;1.60;;
24859;SDS011;12936;52.006;4.350;2023-01-04T10:49:02;11.80;;;1.60;;
24859;SDS011;12936;52.006;4.350;2023-01-04T10:51:38;9.03;;;1.70;;
24859;SDS011;12936;52.006;4.350;2023-01-04T10:54:10;12.77;;;1.93;;
24859;SDS011;12936;52.006;4.350;2023-01-04T10:56:45;7.90;;;1.80;;
24859;SDS011;12936;52.006;4.350;2023-01-04T10:59:18;15.90;;;1.97;;
24859;SDS011;12936;52.006;4.350;2023-01-04T11:01:55;12.20;;;1.53;;
24859;SDS011;12936;52.006;4.350;2023-01-04T11:04:34;13.50;;;1.90;;
24859;SDS011;12936;52.006;4.350;2023-01-04T11:07:07;17.17;;;3.03;;
24859;SDS011;12936;52.006;4.350;2023-01-04T11:09:41;8.17;;;2.07;;
24859;SDS011;12936;52.006;4.350;2023-01-04T11:12:14;5.53;;;1.13;;
24859;SDS011;12936;52.006;4.350;2023-01-04T11:14:45;8.83;;;1.60;;
24859;SDS011;12936;52.006;4.350;2023-01-04T11:17:13;14.17;;;2.53;;
24859;SDS011;12936;52.006;4.350;2023-01-04T11:19:43;18.90;;;2.47;;
24859;SDS011;12936;52.006;4.350;2023-01-04T11:22:13;15.33;;;2.43;;
24859;SDS011;12936;52.006;4.350;2023-01-04T11:24:47;10.93;;;1.83;;
24859;SDS011;12936;52.006;4.350;2023-01-04T11:27:41;8.30;;;1.60;;
24859;SDS011;12936;52.006;4.350;2023-01-04T11:30:14;11.47;;;1.93;;
24859;SDS011;12936;52.006;4.350;2023-01-04T11:32:48;18.00;;;2.73;;
24859;SDS011;12936;52.006;4.350;2023-01-04T11:38:14;19.97;;;2.83;;
24859;SDS011;12936;52.006;4.350;2023-01-04T11:40:53;18.23;;;2.73;;
24859;SDS011;12936;52.006;4.350;2023-01-04T11:43:34;18.43;;;2.53;;
24859;SDS011;12936;52.006;4.350;2023-01-04T11:46:05;20.70;;;2.90;;
24859;SDS011;12936;52.006;4.350;2023-01-04T11:48:35;18.27;;;2.80;;
24859;SDS011;12936;52.006;4.350;2023-01-04T11:51:14;13.67;;;1.87;;
24859;SDS011;12936;52.006;4.350;2023-01-04T11:53:44;16.47;;;2.30;;
24859;SDS011;12936;52.006;4.350;2023-01-04T11:56:22;13.20;;;2.40;;
24859;SDS011;12936;52.006;4.350;2023-01-04T11:59:02;12.20;;;2.80;;
24859;SDS011;12936;52.006;4.350;2023-01-04T12:01:33;13.77;;;2.67;;
24859;SDS011;12936;52.006;4.350;2023-01-04T12:04:05;16.63;;;2.23;;
24859;SDS011;12936;52.006;4.350;2023-01-04T12:06:39;15.73;;;2.47;;
24859;SDS011;12936;52.006;4.350;2023-01-04T12:09:12;11.87;;;2.40;;
24859;SDS011;12936;52.006;4.350;2023-01-04T12:11:42;19.63;;;2.73;;
24859;SDS011;12936;52.006;4.350;2023-01-04T12:14:22;12.30;;;1.87;;
24859;SDS011;12936;52.006;4.350;2023-01-04T12:16:56;13.50;;;2.13;;
24859;SDS011;12936;52.006;4.350;2023-01-04T12:19:28;11.97;;;1.27;;
24859;SDS011;12936;52.006;4.350;2023-01-04T12:21:59;14.80;;;2.37;;
24859;SDS011;12936;52.006;4.350;2023-01-04T12:24:29;16.57;;;2.17;;
24859;SDS011;12936;52.006;4.350;2023-01-04T12:26:59;10.90;;;2.03;;
24859;SDS011;12936;52.006;4.350;2023-01-04T12:29:38;22.30;;;2.60;;
24859;SDS011;12936;52.006;4.350;2023-01-04T12:32:38;16.97;;;2.43;;
24859;SDS011;12936;52.006;4.350;2023-01-04T12:44:56;10.60;;;1.57;;
24859;SDS011;12936;52.006;4.350;2023-01-04T12:47:43;17.50;;;2.47;;
24859;SDS011;12936;52.006;4.350;2023-01-04T12:50:26;13.57;;;2.27;;
24859;SDS011;12936;52.006;4.350;2023-01-04T12:52:58;18.57;;;2.40;;
24859;SDS011;12936;52.006;4.350;2023-01-04T12:55:50;13.70;;;2.77;;
24859;SDS011;12936;52.006;4.350;2023-01-04T12:58:38;9.00;;;1.83;;
24859;SDS011;12936;52.006;4.350;2023-01-04T13:01:27;15.23;;;2.30;;
24859;SDS011;12936;52.006;4.350;2023-01-04T13:03:57;22.73;;;3.57;;
24859;SDS011;12936;52.006;4.350;2023-01-04T13:06:32;13.00;;;2.40;;
24859;SDS011;12936;52.006;4.350;2023-01-04T13:09:08;18.47;;;2.60;;
24859;SDS011;12936;52.006;4.350;2023-01-04T13:11:54;17.37;;;2.20;;
24859;SDS011;12936;52.006;4.350;2023-01-04T13:14:38;13.93;;;2.60;;
24859;SDS011;12936;52.006;4.350;2023-01-04T13:17:13;19.63;;;2.43;;
24859;SDS011;12936;52.006;4.350;2023-01-04T13:19:43;19.77;;;2.43;;
24859;SDS011;12936;52.006;4.350;2023-01-04T13:22:15;23.07;;;2.90;;
24859;SDS011;12936;52.006;4.350;2023-01-04T13:24:54;18.37;;;2.77;;
24859;SDS011;12936;52.006;4.350;2023-01-04T13:27:25;11.20;;;1.60;;
24859;SDS011;12936;52.006;4.350;2023-01-04T13:29:54;11.17;;;2.20;;
24859;SDS011;12936;52.006;4.350;2023-01-04T13:32:22;13.53;;;2.23;;
24859;SDS011;12936;52.006;4.350;2023-01-04T13:34:53;15.33;;;2.80;;
24859;SDS011;12936;52.006;4.350;2023-01-04T13:37:25;21.03;;;3.07;;
24859;SDS011;12936;52.006;4.350;2023-01-04T13:40:00;12.23;;;1.83;;
24859;SDS011;12936;52.006;4.350;2023-01-04T13:45:40;13.70;;;2.03;;
24859;SDS011;12936;52.006;4.350;2023-01-04T13:48:34;13.77;;;2.70;;
24859;SDS011;12936;52.006;4.350;2023-01-04T13:51:04;14.57;;;2.20;;
24859;SDS011;12936;52.006;4.350;2023-01-04T13:53:40;10.53;;;2.07;;
24859;SDS011;12936;52.006;4.350;2023-01-04T13:56:14;16.40;;;2.20;;
24859;SDS011;12936;52.006;4.350;2023-01-04T13:58:46;20.27;;;2.97;;
24859;SDS011;12936;52.006;4.350;2023-01-04T14:01:15;18.17;;;2.77;;
24859;SDS011;12936;52.006;4.350;2023-01-04T14:03:48;19.70;;;2.60;;
24859;SDS011;12936;52.006;4.350;2023-01-04T14:06:19;23.47;;;3.77;;
24859;SDS011;12936;52.006;4.350;2023-01-04T14:08:51;14.50;;;2.80;;
24859;SDS011;12936;52.006;4.350;2023-01-04T14:11:23;12.50;;;2.00;;
24859;SDS011;12936;52.006;4.350;2023-01-04T14:17:07;22.63;;;3.57;;
24859;SDS011;12936;52.006;4.350;2023-01-04T14:19:42;20.77;;;2.90;;
24859;SDS011;12936;52.006;4.350;2023-01-04T14:22:31;16.97;;;2.60;;
24859;SDS011;12936;52.006;4.350;2023-01-04T14:28:24;24.53;;;3.40;;
24859;SDS011;12936;52.006;4.350;2023-01-04T14:31:22;19.80;;;3.33;;
24859;SDS011;12936;52.006;4.350;2023-01-04T14:34:06;23.97;;;2.83;;
24859;SDS011;12936;52.006;4.350;2023-01-04T14:36:40;28.07;;;3.57;;
24859;SDS011;12936;52.006;4.350;2023-01-04T14:39:20;24.80;;;4.30;;
24859;SDS011;12936;52.006;4.350;2023-01-04T14:41:54;28.93;;;4.50;;
24859;SDS011;12936;52.006;4.350;2023-01-04T14:44:26;25.73;;;3.93;;
24859;SDS011;12936;52.006;4.350;2023-01-04T14:46:58;28.13;;;4.30;;
24859;SDS011;12936;52.006;4.350;2023-01-04T14:49:27;21.73;;;3.40;;
24859;SDS011;12936;52.006;4.350;2023-01-04T14:51:57;37.17;;;5.60;;
24859;SDS011;12936;52.006;4.350;2023-01-04T14:54:26;23.23;;;3.93;;
24859;SDS011;12936;52.006;4.350;2023-01-04T14:56:57;31.97;;;4.37;;
24859;SDS011;12936;52.006;4.350;2023-01-04T14:59:25;25.73;;;4.83;;
24859;SDS011;12936;52.006;4.350;2023-01-04T15:01:54;33.70;;;5.33;;
24859;SDS011;12936;52.006;4.350;2023-01-04T15:04:25;37.60;;;5.63;;
24859;SDS011;12936;52.006;4.350;2023-01-04T15:06:54;32.50;;;4.93;;
24859;SDS011;12936;52.006;4.350;2023-01-04T15:09:23;36.57;;;4.83;;
24859;SDS011;12936;52.006;4.350;2023-01-04T15:11:51;46.93;;;5.50;;
24859;SDS011;12936;52.006;4.350;2023-01-04T15:14:19;28.73;;;4.80;;
24859;SDS011;12936;52.006;4.350;2023-01-04T15:16:47;40.90;;;5.23;;
24859;SDS011;12936;52.006;4.350;2023-01-04T15:19:16;34.63;;;5.13;;
24859;SDS011;12936;52.006;4.350;2023-01-04T15:21:45;30.60;;;4.50;;
24859;SDS011;12936;52.006;4.350;2023-01-04T15:24:13;33.93;;;4.60;;
24859;SDS011;12936;52.006;4.350;2023-01-04T15:26:42;25.53;;;3.80;;
24859;SDS011;12936;52.006;4.350;2023-01-04T15:29:10;34.03;;;4.93;;
24859;SDS011;12936;52.006;4.350;2023-01-04T15:31:38;31.57;;;4.53;;
24859;SDS011;12936;52.006;4.350;2023-01-04T15:34:09;26.87;;;4.53;;
24859;SDS011;12936;52.006;4.350;2023-01-04T15:36:37;27.58;;;4.75;;
24859;SDS011;12936;52.006;4.350;2023-01-04T15:39:08;31.70;;;5.57;;
24859;SDS011;12936;52.006;4.350;2023-01-04T15:41:39;38.37;;;5.13;;